Here is the Quick Look data you requested

The Data originates at the National Weather Service, and is made available here by the UAlbany Department of Atmospheric and Environmental Sciences

Surface Observations

KBID 230956Z AUTO 31006KT 10SM CLR 01/M01 A2994 RMK AO2 SLP141 T00061011 FZRANO=
KPVD 230951Z 31006KT 10SM FEW120 FEW220 SCT300 01/M06 A2992 RMK AO2 SLP132
KSFZ 230956Z AUTO 10SM CLR M01/M07 A2991 RMK AO2 SLP077 T10061067 FZRANO $=
KUUU 230953Z AUTO 31006KT 10SM CLR 00/M04 A2991 RMK AO2 SLP129 T00001044=
KWST 230953Z AUTO 00000KT 10SM CLR 01/M04 A2994 RMK AO2 SLP139 T00061044=